sensor_id;sensor_type;location;lat;lon;timestamp;P1;durP1;ratioP1;P2;durP2;ratioP2
65737;SDS011;52478;51.844;6.582;2023-04-02T00:01:24;3.78;;;1.40;;
65737;SDS011;52478;51.844;6.582;2023-04-02T00:04:17;3.67;;;1.17;;
65737;SDS011;52478;51.844;6.582;2023-04-02T00:06:47;3.92;;;1.20;;
65737;SDS011;52478;51.844;6.582;2023-04-02T00:12:11;3.67;;;1.30;;
65737;SDS011;52478;51.844;6.582;2023-04-02T00:14:48;3.40;;;1.40;;
65737;SDS011;52478;51.844;6.582;2023-04-02T00:17:17;3.00;;;1.08;;
65737;SDS011;52478;51.844;6.582;2023-04-02T00:19:47;2.78;;;0.90;;
65737;SDS011;52478;51.844;6.582;2023-04-02T00:22:17;3.72;;;1.10;;
65737;SDS011;52478;51.844;6.582;2023-04-02T00:24:47;3.88;;;1.38;;
65737;SDS011;52478;51.844;6.582;2023-04-02T00:27:15;4.30;;;1.10;;
65737;SDS011;52478;51.844;6.582;2023-04-02T00:29:45;3.17;;;1.25;;
65737;SDS011;52478;51.844;6.582;2023-04-02T00:32:16;3.38;;;1.13;;
65737;SDS011;52478;51.844;6.582;2023-04-02T00:34:47;4.35;;;1.33;;
65737;SDS011;52478;51.844;6.582;2023-04-02T00:37:15;4.05;;;1.40;;
65737;SDS011;52478;51.844;6.582;2023-04-02T00:39:49;3.42;;;1.27;;
65737;SDS011;52478;51.844;6.582;2023-04-02T00:42:17;3.15;;;1.00;;
65737;SDS011;52478;51.844;6.582;2023-04-02T00:47:13;2.92;;;1.00;;
65737;SDS011;52478;51.844;6.582;2023-04-02T00:49:44;3.13;;;1.10;;
65737;SDS011;52478;51.844;6.582;2023-04-02T00:52:12;3.80;;;1.02;;
65737;SDS011;52478;51.844;6.582;2023-04-02T00:54:41;3.38;;;1.10;;
65737;SDS011;52478;51.844;6.582;2023-04-02T00:57:15;3.65;;;1.20;;
65737;SDS011;52478;51.844;6.582;2023-04-02T00:59:53;3.28;;;1.05;;
65737;SDS011;52478;51.844;6.582;2023-04-02T01:02:23;3.55;;;1.35;;
65737;SDS011;52478;51.844;6.582;2023-04-02T01:04:53;3.90;;;1.08;;
65737;SDS011;52478;51.844;6.582;2023-04-02T01:07:23;3.38;;;1.17;;
65737;SDS011;52478;51.844;6.582;2023-04-02T01:10:10;3.30;;;1.00;;
65737;SDS011;52478;51.844;6.582;2023-04-02T01:16:19;3.35;;;1.10;;
65737;SDS011;52478;51.844;6.582;2023-04-02T01:18:54;3.78;;;1.13;;
65737;SDS011;52478;51.844;6.582;2023-04-02T01:21:30;4.13;;;1.23;;
65737;SDS011;52478;51.844;6.582;2023-04-02T01:24:06;3.60;;;1.15;;
65737;SDS011;52478;51.844;6.582;2023-04-02T01:26:52;3.20;;;1.27;;
65737;SDS011;52478;51.844;6.582;2023-04-02T01:29:24;4.05;;;1.50;;
65737;SDS011;52478;51.844;6.582;2023-04-02T01:31:53;4.13;;;1.40;;
65737;SDS011;52478;51.844;6.582;2023-04-02T01:34:23;3.65;;;1.10;;
65737;SDS011;52478;51.844;6.582;2023-04-02T01:36:59;2.83;;;1.10;;
65737;SDS011;52478;51.844;6.582;2023-04-02T01:39:35;3.53;;;1.05;;
65737;SDS011;52478;51.844;6.582;2023-04-02T01:42:09;3.45;;;1.20;;
65737;SDS011;52478;51.844;6.582;2023-04-02T01:44:42;2.78;;;1.10;;
65737;SDS011;52478;51.844;6.582;2023-04-02T01:47:14;3.95;;;1.40;;
65737;SDS011;52478;51.844;6.582;2023-04-02T01:49:42;3.92;;;1.30;;
65737;SDS011;52478;51.844;6.582;2023-04-02T01:52:11;2.67;;;1.10;;
65737;SDS011;52478;51.844;6.582;2023-04-02T01:54:41;3.95;;;1.23;;
65737;SDS011;52478;51.844;6.582;2023-04-02T01:57:07;4.82;;;1.55;;
65737;SDS011;52478;51.844;6.582;2023-04-02T01:59:34;3.00;;;1.15;;
65737;SDS011;52478;51.844;6.582;2023-04-02T02:02:03;3.70;;;1.05;;
65737;SDS011;52478;51.844;6.582;2023-04-02T02:04:31;3.53;;;1.00;;
65737;SDS011;52478;51.844;6.582;2023-04-02T02:06:59;3.17;;;1.02;;
65737;SDS011;52478;51.844;6.582;2023-04-02T02:09:27;3.33;;;1.30;;
65737;SDS011;52478;51.844;6.582;2023-04-02T02:11:57;3.33;;;1.45;;
65737;SDS011;52478;51.844;6.582;2023-04-02T02:14:26;3.70;;;1.30;;
65737;SDS011;52478;51.844;6.582;2023-04-02T02:16:54;3.53;;;1.30;;
65737;SDS011;52478;51.844;6.582;2023-04-02T02:19:26;3.28;;;1.10;;
65737;SDS011;52478;51.844;6.582;2023-04-02T02:21:55;5.28;;;1.20;;
65737;SDS011;52478;51.844;6.582;2023-04-02T02:24:33;4.22;;;1.60;;
65737;SDS011;52478;51.844;6.582;2023-04-02T02:27:06;3.67;;;1.17;;
65737;SDS011;52478;51.844;6.582;2023-04-02T02:29:50;3.50;;;1.10;;
65737;SDS011;52478;51.844;6.582;2023-04-02T02:32:22;3.63;;;1.20;;
65737;SDS011;52478;51.844;6.582;2023-04-02T02:34:55;4.00;;;1.13;;
65737;SDS011;52478;51.844;6.582;2023-04-02T02:37:27;3.08;;;1.20;;
65737;SDS011;52478;51.844;6.582;2023-04-02T02:39:56;3.45;;;1.20;;
65737;SDS011;52478;51.844;6.582;2023-04-02T02:42:26;3.72;;;1.30;;
65737;SDS011;52478;51.844;6.582;2023-04-02T02:44:57;3.25;;;1.27;;
65737;SDS011;52478;51.844;6.582;2023-04-02T02:47:27;4.78;;;1.60;;
65737;SDS011;52478;51.844;6.582;2023-04-02T02:49:57;3.58;;;1.30;;
65737;SDS011;52478;51.844;6.582;2023-04-02T02:52:27;3.17;;;1.30;;
65737;SDS011;52478;51.844;6.582;2023-04-02T02:54:56;3.55;;;1.30;;
65737;SDS011;52478;51.844;6.582;2023-04-02T02:57:26;3.53;;;1.42;;
65737;SDS011;52478;51.844;6.582;2023-04-02T02:59:55;3.25;;;1.38;;
65737;SDS011;52478;51.844;6.582;2023-04-02T03:02:24;3.65;;;1.13;;
65737;SDS011;52478;51.844;6.582;2023-04-02T03:04:52;4.28;;;1.50;;
65737;SDS011;52478;51.844;6.582;2023-04-02T03:07:22;4.25;;;1.60;;
65737;SDS011;52478;51.844;6.582;2023-04-02T03:09:56;4.47;;;1.40;;
65737;SDS011;52478;51.844;6.582;2023-04-02T03:12:34;3.65;;;1.30;;
65737;SDS011;52478;51.844;6.582;2023-04-02T03:15:09;4.07;;;1.48;;
65737;SDS011;52478;51.844;6.582;2023-04-02T03:17:43;4.93;;;1.50;;
65737;SDS011;52478;51.844;6.582;2023-04-02T03:20:14;3.85;;;1.23;;
65737;SDS011;52478;51.844;6.582;2023-04-02T03:22:48;4.20;;;1.13;;
65737;SDS011;52478;51.844;6.582;2023-04-02T03:25:21;4.80;;;1.70;;
65737;SDS011;52478;51.844;6.582;2023-04-02T03:27:55;4.47;;;1.48;;
65737;SDS011;52478;51.844;6.582;2023-04-02T03:30:33;3.47;;;1.20;;
65737;SDS011;52478;51.844;6.582;2023-04-02T03:33:06;4.78;;;1.70;;
65737;SDS011;52478;51.844;6.582;2023-04-02T03:35:39;3.83;;;1.20;;
65737;SDS011;52478;51.844;6.582;2023-04-02T03:38:13;5.50;;;1.25;;
65737;SDS011;52478;51.844;6.582;2023-04-02T03:40:44;3.92;;;1.48;;
65737;SDS011;52478;51.844;6.582;2023-04-02T03:43:20;5.72;;;1.70;;
65737;SDS011;52478;51.844;6.582;2023-04-02T03:45:50;4.45;;;1.33;;
65737;SDS011;52478;51.844;6.582;2023-04-02T03:48:23;4.63;;;1.60;;
65737;SDS011;52478;51.844;6.582;2023-04-02T03:50:55;4.38;;;1.67;;
65737;SDS011;52478;51.844;6.582;2023-04-02T03:53:26;4.25;;;1.30;;
65737;SDS011;52478;51.844;6.582;2023-04-02T03:55:56;5.43;;;1.40;;
65737;SDS011;52478;51.844;6.582;2023-04-02T03:58:24;3.78;;;1.50;;
65737;SDS011;52478;51.844;6.582;2023-04-02T04:00:54;4.25;;;1.55;;
65737;SDS011;52478;51.844;6.582;2023-04-02T04:03:27;3.25;;;1.30;;
65737;SDS011;52478;51.844;6.582;2023-04-02T04:05:58;4.03;;;1.65;;
65737;SDS011;52478;51.844;6.582;2023-04-02T04:08:29;4.05;;;1.50;;
65737;SDS011;52478;51.844;6.582;2023-04-02T04:11:00;5.90;;;1.70;;
65737;SDS011;52478;51.844;6.582;2023-04-02T04:13:30;4.15;;;1.25;;
65737;SDS011;52478;51.844;6.582;2023-04-02T04:16:05;5.75;;;1.60;;
65737;SDS011;52478;51.844;6.582;2023-04-02T04:18:37;3.97;;;1.60;;
65737;SDS011;52478;51.844;6.582;2023-04-02T04:21:12;4.28;;;1.48;;
65737;SDS011;52478;51.844;6.582;2023-04-02T04:23:48;4.35;;;1.30;;
65737;SDS011;52478;51.844;6.582;2023-04-02T04:26:18;5.05;;;1.80;;
65737;SDS011;52478;51.844;6.582;2023-04-02T04:28:51;4.10;;;1.33;;
65737;SDS011;52478;51.844;6.582;2023-04-02T04:31:30;4.43;;;1.40;;
65737;SDS011;52478;51.844;6.582;2023-04-02T04:36:35;4.93;;;1.42;;
65737;SDS011;52478;51.844;6.582;2023-04-02T04:39:20;4.22;;;1.70;;
65737;SDS011;52478;51.844;6.582;2023-04-02T04:41:53;4.63;;;1.52;;
65737;SDS011;52478;51.844;6.582;2023-04-02T04:44:22;4.80;;;1.33;;
65737;SDS011;52478;51.844;6.582;2023-04-02T04:46:54;4.07;;;1.30;;
65737;SDS011;52478;51.844;6.582;2023-04-02T04:49:26;4.97;;;1.63;;
65737;SDS011;52478;51.844;6.582;2023-04-02T04:51:58;5.07;;;1.90;;
65737;SDS011;52478;51.844;6.582;2023-04-02T04:54:35;5.13;;;1.95;;
65737;SDS011;52478;51.844;6.582;2023-04-02T04:57:03;4.10;;;1.40;;
65737;SDS011;52478;51.844;6.582;2023-04-02T04:59:32;4.07;;;1.40;;
65737;SDS011;52478;51.844;6.582;2023-04-02T05:04:34;4.20;;;1.25;;
65737;SDS011;52478;51.844;6.582;2023-04-02T05:07:04;5.07;;;1.90;;
65737;SDS011;52478;51.844;6.582;2023-04-02T05:09:36;4.40;;;1.60;;
65737;SDS011;52478;51.844;6.582;2023-04-02T05:12:06;4.50;;;1.83;;
65737;SDS011;52478;51.844;6.582;2023-04-02T05:14:42;5.13;;;1.67;;
65737;SDS011;52478;51.844;6.582;2023-04-02T05:17:15;4.53;;;1.70;;
65737;SDS011;52478;51.844;6.582;2023-04-02T05:19:46;4.03;;;1.33;;
65737;SDS011;52478;51.844;6.582;2023-04-02T05:22:19;4.10;;;1.45;;
65737;SDS011;52478;51.844;6.582;2023-04-02T05:24:59;4.38;;;1.52;;
65737;SDS011;52478;51.844;6.582;2023-04-02T05:27:35;4.85;;;1.70;;
65737;SDS011;52478;51.844;6.582;2023-04-02T05:30:06;4.47;;;1.85;;
65737;SDS011;52478;51.844;6.582;2023-04-02T05:32:39;3.75;;;1.45;;
65737;SDS011;52478;51.844;6.582;2023-04-02T05:35:13;4.32;;;1.42;;
65737;SDS011;52478;51.844;6.582;2023-04-02T05:37:41;4.55;;;1.60;;
65737;SDS011;52478;51.844;6.582;2023-04-02T05:40:11;4.80;;;1.52;;
65737;SDS011;52478;51.844;6.582;2023-04-02T05:42:42;5.93;;;1.90;;
65737;SDS011;52478;51.844;6.582;2023-04-02T05:45:16;4.70;;;1.40;;
65737;SDS011;52478;51.844;6.582;2023-04-02T05:47:48;4.88;;;1.40;;
65737;SDS011;52478;51.844;6.582;2023-04-02T05:50:20;4.38;;;1.73;;
65737;SDS011;52478;51.844;6.582;2023-04-02T05:52:55;5.38;;;1.60;;
65737;SDS011;52478;51.844;6.582;2023-04-02T05:55:32;5.60;;;1.80;;
65737;SDS011;52478;51.844;6.582;2023-04-02T05:58:09;5.00;;;1.88;;
65737;SDS011;52478;51.844;6.582;2023-04-02T06:00:45;5.03;;;1.75;;
65737;SDS011;52478;51.844;6.582;2023-04-02T06:03:20;4.57;;;1.60;;
65737;SDS011;52478;51.844;6.582;2023-04-02T06:05:52;5.70;;;1.60;;
65737;SDS011;52478;51.844;6.582;2023-04-02T06:08:23;4.63;;;1.48;;
65737;SDS011;52478;51.844;6.582;2023-04-02T06:10:54;6.28;;;1.60;;
65737;SDS011;52478;51.844;6.582;2023-04-02T06:13:25;4.38;;;1.50;;
65737;SDS011;52478;51.844;6.582;2023-04-02T06:15:52;4.75;;;1.45;;
65737;SDS011;52478;51.844;6.582;2023-04-02T06:18:20;4.10;;;1.50;;
65737;SDS011;52478;51.844;6.582;2023-04-02T06:20:49;4.38;;;1.23;;
65737;SDS011;52478;51.844;6.582;2023-04-02T06:23:16;4.50;;;1.60;;
65737;SDS011;52478;51.844;6.582;2023-04-02T06:25:46;4.72;;;1.58;;
65737;SDS011;52478;51.844;6.582;2023-04-02T06:28:18;4.80;;;1.55;;
65737;SDS011;52478;51.844;6.582;2023-04-02T06:33:18;4.22;;;1.52;;
65737;SDS011;52478;51.844;6.582;2023-04-02T06:35:45;6.25;;;1.60;;
65737;SDS011;52478;51.844;6.582;2023-04-02T06:38:14;4.35;;;1.27;;
65737;SDS011;52478;51.844;6.582;2023-04-02T06:40:44;4.50;;;1.45;;
65737;SDS011;52478;51.844;6.582;2023-04-02T06:43:16;4.18;;;1.20;;
65737;SDS011;52478;51.844;6.582;2023-04-02T06:45:50;5.00;;;1.67;;
65737;SDS011;52478;51.844;6.582;2023-04-02T06:48:19;5.40;;;1.40;;
65737;SDS011;52478;51.844;6.582;2023-04-02T06:50:47;5.82;;;1.70;;
65737;SDS011;52478;51.844;6.582;2023-04-02T06:53:17;4.55;;;1.60;;
65737;SDS011;52478;51.844;6.582;2023-04-02T06:55:48;4.40;;;1.40;;
65737;SDS011;52478;51.844;6.582;2023-04-02T06:58:19;4.88;;;1.45;;
65737;SDS011;52478;51.844;6.582;2023-04-02T07:00:46;4.82;;;1.80;;
65737;SDS011;52478;51.844;6.582;2023-04-02T07:03:15;4.63;;;1.85;;
65737;SDS011;52478;51.844;6.582;2023-04-02T07:05:46;4.60;;;1.58;;
65737;SDS011;52478;51.844;6.582;2023-04-02T07:08:12;4.45;;;1.30;;
65737;SDS011;52478;51.844;6.582;2023-04-02T07:10:39;4.43;;;1.55;;
65737;SDS011;52478;51.844;6.582;2023-04-02T07:13:05;4.78;;;1.45;;
65737;SDS011;52478;51.844;6.582;2023-04-02T07:15:33;5.97;;;1.77;;
65737;SDS011;52478;51.844;6.582;2023-04-02T07:18:00;3.95;;;1.38;;
65737;SDS011;52478;51.844;6.582;2023-04-02T07:20:27;6.13;;;1.80;;
65737;SDS011;52478;51.844;6.582;2023-04-02T07:22:56;4.60;;;1.60;;
65737;SDS011;52478;51.844;6.582;2023-04-02T07:25:22;4.00;;;1.30;;
65737;SDS011;52478;51.844;6.582;2023-04-02T07:27:50;5.47;;;1.50;;
65737;SDS011;52478;51.844;6.582;2023-04-02T07:30:17;3.65;;;1.23;;
65737;SDS011;52478;51.844;6.582;2023-04-02T07:32:46;3.80;;;1.40;;
65737;SDS011;52478;51.844;6.582;2023-04-02T07:35:12;4.32;;;1.58;;
65737;SDS011;52478;51.844;6.582;2023-04-02T07:37:39;4.88;;;1.50;;
65737;SDS011;52478;51.844;6.582;2023-04-02T07:40:06;4.93;;;1.58;;
65737;SDS011;52478;51.844;6.582;2023-04-02T07:42:41;5.28;;;1.60;;
65737;SDS011;52478;51.844;6.582;2023-04-02T07:45:08;16.45;;;2.22;;
65737;SDS011;52478;51.844;6.582;2023-04-02T07:47:35;6.03;;;1.75;;
65737;SDS011;52478;51.844;6.582;2023-04-02T07:50:03;7.22;;;2.15;;
65737;SDS011;52478;51.844;6.582;2023-04-02T07:52:30;7.13;;;1.92;;
65737;SDS011;52478;51.844;6.582;2023-04-02T07:54:56;6.10;;;1.60;;
65737;SDS011;52478;51.844;6.582;2023-04-02T07:57:23;7.18;;;1.88;;
65737;SDS011;52478;51.844;6.582;2023-04-02T07:59:49;5.53;;;1.50;;
65737;SDS011;52478;51.844;6.582;2023-04-02T08:02:19;7.30;;;1.73;;
65737;SDS011;52478;51.844;6.582;2023-04-02T08:04:46;6.10;;;1.70;;
65737;SDS011;52478;51.844;6.582;2023-04-02T08:07:14;5.97;;;1.70;;
65737;SDS011;52478;51.844;6.582;2023-04-02T08:09:41;18.95;;;4.03;;
65737;SDS011;52478;51.844;6.582;2023-04-02T08:12:07;26.33;;;7.03;;
65737;SDS011;52478;51.844;6.582;2023-04-02T08:14:35;33.47;;;6.43;;
65737;SDS011;52478;51.844;6.582;2023-04-02T08:17:01;30.42;;;6.43;;
65737;SDS011;52478;51.844;6.582;2023-04-02T08:19:28;26.60;;;5.55;;
65737;SDS011;52478;51.844;6.582;2023-04-02T08:21:54;22.35;;;4.60;;
65737;SDS011;52478;51.844;6.582;2023-04-02T08:24:22;27.35;;;5.82;;
65737;SDS011;52478;51.844;6.582;2023-04-02T08:26:49;20.02;;;4.80;;
65737;SDS011;52478;51.844;6.582;2023-04-02T08:29:17;23.02;;;5.57;;
65737;SDS011;52478;51.844;6.582;2023-04-02T08:31:44;24.30;;;5.15;;
65737;SDS011;52478;51.844;6.582;2023-04-02T08:34:10;15.50;;;4.78;;
65737;SDS011;52478;51.844;6.582;2023-04-02T08:36:38;18.50;;;4.97;;
65737;SDS011;52478;51.844;6.582;2023-04-02T08:39:08;16.23;;;4.50;;
65737;SDS011;52478;51.844;6.582;2023-04-02T08:44:08;15.85;;;4.20;;
65737;SDS011;52478;51.844;6.582;2023-04-02T08:46:58;15.45;;;3.45;;
65737;SDS011;52478;51.844;6.582;2023-04-02T08:49:28;15.60;;;3.60;;
65737;SDS011;52478;51.844;6.582;2023-04-02T08:51:57;13.20;;;3.63;;
65737;SDS011;52478;51.844;6.582;2023-04-02T08:54:26;19.35;;;4.05;;
65737;SDS011;52478;51.844;6.582;2023-04-02T08:56:56;14.40;;;3.90;;
65737;SDS011;52478;51.844;6.582;2023-04-02T08:59:29;18.83;;;4.28;;
65737;SDS011;52478;51.844;6.582;2023-04-02T09:02:00;15.27;;;3.58;;
65737;SDS011;52478;51.844;6.582;2023-04-02T09:04:35;14.45;;;3.90;;
65737;SDS011;52478;51.844;6.582;2023-04-02T09:07:02;14.15;;;3.63;;
65737;SDS011;52478;51.844;6.582;2023-04-02T09:09:29;13.75;;;3.58;;
65737;SDS011;52478;51.844;6.582;2023-04-02T09:12:04;11.98;;;3.15;;
65737;SDS011;52478;51.844;6.582;2023-04-02T09:14:40;14.30;;;3.47;;
65737;SDS011;52478;51.844;6.582;2023-04-02T09:17:11;16.00;;;3.30;;
65737;SDS011;52478;51.844;6.582;2023-04-02T09:19:43;14.32;;;3.63;;
65737;SDS011;52478;51.844;6.582;2023-04-02T09:22:18;16.95;;;3.92;;
65737;SDS011;52478;51.844;6.582;2023-04-02T09:24:49;13.35;;;3.47;;
65737;SDS011;52478;51.844;6.582;2023-04-02T09:27:18;12.05;;;3.40;;
65737;SDS011;52478;51.844;6.582;2023-04-02T09:29:47;15.02;;;3.30;;
65737;SDS011;52478;51.844;6.582;2023-04-02T09:32:29;14.82;;;3.55;;
65737;SDS011;52478;51.844;6.582;2023-04-02T09:35:05;11.77;;;3.42;;
65737;SDS011;52478;51.844;6.582;2023-04-02T09:37:36;13.95;;;3.30;;
65737;SDS011;52478;51.844;6.582;2023-04-02T09:42:45;10.85;;;3.10;;
65737;SDS011;52478;51.844;6.582;2023-04-02T09:45:13;8.68;;;2.60;;
65737;SDS011;52478;51.844;6.582;2023-04-02T09:47:45;12.00;;;3.35;;
65737;SDS011;52478;51.844;6.582;2023-04-02T09:50:12;10.15;;;2.95;;
65737;SDS011;52478;51.844;6.582;2023-04-02T09:52:48;10.00;;;2.65;;
65737;SDS011;52478;51.844;6.582;2023-04-02T09:57:45;10.25;;;2.88;;
65737;SDS011;52478;51.844;6.582;2023-04-02T10:00:18;10.38;;;2.42;;
65737;SDS011;52478;51.844;6.582;2023-04-02T10:02:59;10.68;;;2.75;;
65737;SDS011;52478;51.844;6.582;2023-04-02T10:05:28;9.60;;;2.92;;
65737;SDS011;52478;51.844;6.582;2023-04-02T10:08:04;8.20;;;2.55;;
65737;SDS011;52478;51.844;6.582;2023-04-02T10:10:34;8.90;;;2.63;;
65737;SDS011;52478;51.844;6.582;2023-04-02T10:13:06;11.65;;;2.80;;
65737;SDS011;52478;51.844;6.582;2023-04-02T10:15:41;11.50;;;2.38;;
65737;SDS011;52478;51.844;6.582;2023-04-02T10:18:12;10.55;;;2.55;;
65737;SDS011;52478;51.844;6.582;2023-04-02T10:20:45;9.73;;;2.40;;
65737;SDS011;52478;51.844;6.582;2023-04-02T10:23:15;10.55;;;2.72;;
65737;SDS011;52478;51.844;6.582;2023-04-02T10:25:44;9.57;;;2.30;;
65737;SDS011;52478;51.844;6.582;2023-04-02T10:28:22;10.85;;;2.78;;
65737;SDS011;52478;51.844;6.582;2023-04-02T10:31:02;8.57;;;2.55;;
65737;SDS011;52478;51.844;6.582;2023-04-02T10:33:41;13.93;;;2.58;;
65737;SDS011;52478;51.844;6.582;2023-04-02T10:36:18;9.30;;;2.47;;
65737;SDS011;52478;51.844;6.582;2023-04-02T10:38:51;9.75;;;2.60;;
65737;SDS011;52478;51.844;6.582;2023-04-02T10:41:30;9.15;;;2.50;;
65737;SDS011;52478;51.844;6.582;2023-04-02T10:44:12;10.68;;;2.60;;
65737;SDS011;52478;51.844;6.582;2023-04-02T10:46:53;12.85;;;3.22;;
65737;SDS011;52478;51.844;6.582;2023-04-02T10:49:30;10.70;;;2.53;;
65737;SDS011;52478;51.844;6.582;2023-04-02T10:52:02;8.88;;;2.35;;
65737;SDS011;52478;51.844;6.582;2023-04-02T10:54:35;7.25;;;2.28;;
65737;SDS011;52478;51.844;6.582;2023-04-02T10:59:38;6.78;;;2.25;;
65737;SDS011;52478;51.844;6.582;2023-04-02T11:02:14;8.45;;;2.20;;
65737;SDS011;52478;51.844;6.582;2023-04-02T11:04:50;8.43;;;1.92;;
65737;SDS011;52478;51.844;6.582;2023-04-02T11:07:21;8.32;;;2.40;;
65737;SDS011;52478;51.844;6.582;2023-04-02T11:09:51;7.88;;;2.20;;
65737;SDS011;52478;51.844;6.582;2023-04-02T11:12:20;8.68;;;2.30;;
65737;SDS011;52478;51.844;6.582;2023-04-02T11:14:51;8.60;;;2.17;;
65737;SDS011;52478;51.844;6.582;2023-04-02T11:17:21;8.18;;;2.25;;
65737;SDS011;52478;51.844;6.582;2023-04-02T11:19:49;6.80;;;2.28;;
65737;SDS011;52478;51.844;6.582;2023-04-02T11:22:17;8.25;;;2.40;;
65737;SDS011;52478;51.844;6.582;2023-04-02T11:24:46;8.20;;;2.40;;
65737;SDS011;52478;51.844;6.582;2023-04-02T11:27:16;9.23;;;2.33;;
65737;SDS011;52478;51.844;6.582;2023-04-02T11:29:46;6.93;;;2.60;;
65737;SDS011;52478;51.844;6.582;2023-04-02T11:32:26;7.00;;;2.15;;
65737;SDS011;52478;51.844;6.582;2023-04-02T11:37:51;8.30;;;1.80;;
65737;SDS011;52478;51.844;6.582;2023-04-02T11:52:00;8.32;;;1.90;;
65737;SDS011;52478;51.844;6.582;2023-04-02T11:54:28;6.50;;;1.98;;
65737;SDS011;52478;51.844;6.582;2023-04-02T11:57:00;6.50;;;1.83;;
65737;SDS011;52478;51.844;6.582;2023-04-02T11:59:36;6.53;;;2.00;;
65737;SDS011;52478;51.844;6.582;2023-04-02T12:02:12;6.38;;;1.90;;
65737;SDS011;52478;51.844;6.582;2023-04-02T12:04:58;7.60;;;1.98;;
65737;SDS011;52478;51.844;6.582;2023-04-02T12:10:30;6.93;;;1.90;;
65737;SDS011;52478;51.844;6.582;2023-04-02T12:12:58;6.93;;;1.70;;
65737;SDS011;52478;51.844;6.582;2023-04-02T12:15:32;6.20;;;1.65;;
65737;SDS011;52478;51.844;6.582;2023-04-02T12:18:10;5.45;;;1.60;;
65737;SDS011;52478;51.844;6.582;2023-04-02T12:20:41;7.20;;;2.00;;
65737;SDS011;52478;51.844;6.582;2023-04-02T12:23:14;6.03;;;1.77;;
65737;SDS011;52478;51.844;6.582;2023-04-02T12:25:44;6.18;;;1.55;;
65737;SDS011;52478;51.844;6.582;2023-04-02T12:28:18;5.45;;;1.90;;
65737;SDS011;52478;51.844;6.582;2023-04-02T12:30:46;5.63;;;1.95;;
65737;SDS011;52478;51.844;6.582;2023-04-02T12:33:15;7.88;;;2.17;;
65737;SDS011;52478;51.844;6.582;2023-04-02T12:35:53;6.00;;;1.63;;
65737;SDS011;52478;51.844;6.582;2023-04-02T12:38:22;6.85;;;1.75;;
65737;SDS011;52478;51.844;6.582;2023-04-02T12:40:51;6.88;;;1.90;;
65737;SDS011;52478;51.844;6.582;2023-04-02T12:43:22;7.38;;;1.83;;
65737;SDS011;52478;51.844;6.582;2023-04-02T12:45:50;7.68;;;1.98;;
65737;SDS011;52478;51.844;6.582;2023-04-02T12:48:18;6.30;;;1.90;;
65737;SDS011;52478;51.844;6.582;2023-04-02T12:50:45;6.55;;;1.63;;
65737;SDS011;52478;51.844;6.582;2023-04-02T12:53:17;7.47;;;1.70;;
65737;SDS011;52478;51.844;6.582;2023-04-02T12:55:46;6.07;;;2.22;;
65737;SDS011;52478;51.844;6.582;2023-04-02T12:58:24;5.80;;;1.65;;
65737;SDS011;52478;51.844;6.582;2023-04-02T13:01:02;5.78;;;1.50;;
65737;SDS011;52478;51.844;6.582;2023-04-02T13:03:34;6.60;;;1.88;;
65737;SDS011;52478;51.844;6.582;2023-04-02T13:06:01;6.30;;;1.83;;
65737;SDS011;52478;51.844;6.582;2023-04-02T13:08:29;4.57;;;1.33;;
65737;SDS011;52478;51.844;6.582;2023-04-02T13:11:06;6.00;;;1.70;;
65737;SDS011;52478;51.844;6.582;2023-04-02T13:13:33;7.72;;;1.90;;
65737;SDS011;52478;51.844;6.582;2023-04-02T13:16:03;6.30;;;1.90;;
65737;SDS011;52478;51.844;6.582;2023-04-02T13:18:48;8.63;;;1.92;;
65737;SDS011;52478;51.844;6.582;2023-04-02T13:21:22;7.78;;;2.03;;
65737;SDS011;52478;51.844;6.582;2023-04-02T13:23:52;9.63;;;2.45;;
65737;SDS011;52478;51.844;6.582;2023-04-02T13:26:19;7.47;;;2.17;;
65737;SDS011;52478;51.844;6.582;2023-04-02T13:28:58;12.57;;;2.60;;
65737;SDS011;52478;51.844;6.582;2023-04-02T13:31:26;10.73;;;2.60;;
65737;SDS011;52478;51.844;6.582;2023-04-02T13:33:52;7.53;;;2.10;;
65737;SDS011;52478;51.844;6.582;2023-04-02T13:36:19;8.85;;;2.40;;
65737;SDS011;52478;51.844;6.582;2023-04-02T13:38:45;8.02;;;2.38;;
65737;SDS011;52478;51.844;6.582;2023-04-02T13:41:18;8.85;;;2.25;;
65737;SDS011;52478;51.844;6.582;2023-04-02T13:43:48;10.07;;;2.65;;
65737;SDS011;52478;51.844;6.582;2023-04-02T13:46:16;8.23;;;2.00;;
65737;SDS011;52478;51.844;6.582;2023-04-02T13:48:46;9.80;;;2.20;;
65737;SDS011;52478;51.844;6.582;2023-04-02T13:51:13;6.65;;;2.03;;
65737;SDS011;52478;51.844;6.582;2023-04-02T13:53:41;6.55;;;1.80;;
65737;SDS011;52478;51.844;6.582;2023-04-02T13:56:09;8.32;;;2.35;;
65737;SDS011;52478;51.844;6.582;2023-04-02T13:58:37;7.55;;;2.30;;
65737;SDS011;52478;51.844;6.582;2023-04-02T14:01:03;9.77;;;1.98;;
65737;SDS011;52478;51.844;6.582;2023-04-02T14:05:58;8.05;;;1.90;;
65737;SDS011;52478;51.844;6.582;2023-04-02T14:08:35;7.95;;;2.13;;
65737;SDS011;52478;51.844;6.582;2023-04-02T14:11:15;9.30;;;1.88;;
65737;SDS011;52478;51.844;6.582;2023-04-02T14:13:55;7.88;;;2.20;;
65737;SDS011;52478;51.844;6.582;2023-04-02T14:16:39;7.55;;;2.40;;
65737;SDS011;52478;51.844;6.582;2023-04-02T14:19:16;6.85;;;2.20;;
65737;SDS011;52478;51.844;6.582;2023-04-02T14:21:57;6.97;;;2.38;;
65737;SDS011;52478;51.844;6.582;2023-04-02T14:24:34;7.10;;;2.15;;
65737;SDS011;52478;51.844;6.582;2023-04-02T14:27:14;7.63;;;2.35;;
65737;SDS011;52478;51.844;6.582;2023-04-02T14:29:52;6.70;;;1.73;;
65737;SDS011;52478;51.844;6.582;2023-04-02T14:32:27;6.45;;;1.90;;
65737;SDS011;52478;51.844;6.582;2023-04-02T14:35:02;6.97;;;2.20;;
65737;SDS011;52478;51.844;6.582;2023-04-02T14:37:35;6.80;;;1.90;;
65737;SDS011;52478;51.844;6.582;2023-04-02T14:40:09;7.10;;;1.90;;
65737;SDS011;52478;51.844;6.582;2023-04-02T14:42:43;7.57;;;1.60;;
65737;SDS011;52478;51.844;6.582;2023-04-02T14:45:21;5.97;;;2.00;;
65737;SDS011;52478;51.844;6.582;2023-04-02T14:47:57;6.45;;;1.80;;
65737;SDS011;52478;51.844;6.582;2023-04-02T14:50:28;7.10;;;1.88;;
65737;SDS011;52478;51.844;6.582;2023-04-02T14:53:00;6.40;;;1.80;;
65737;SDS011;52478;51.844;6.582;2023-04-02T14:55:34;5.90;;;1.70;;
65737;SDS011;52478;51.844;6.582;2023-04-02T14:58:04;5.50;;;1.63;;
65737;SDS011;52478;51.844;6.582;2023-04-02T15:00:37;5.60;;;1.70;;
65737;SDS011;52478;51.844;6.582;2023-04-02T15:03:08;7.18;;;1.83;;
65737;SDS011;52478;51.844;6.582;2023-04-02T15:05:40;6.35;;;1.80;;
65737;SDS011;52478;51.844;6.582;2023-04-02T15:08:14;5.13;;;1.48;;
65737;SDS011;52478;51.844;6.582;2023-04-02T15:10:50;5.93;;;1.60;;
65737;SDS011;52478;51.844;6.582;2023-04-02T15:13:22;5.60;;;1.70;;
65737;SDS011;52478;51.844;6.582;2023-04-02T15:15:57;4.47;;;1.42;;
65737;SDS011;52478;51.844;6.582;2023-04-02T15:18:30;5.72;;;1.77;;
65737;SDS011;52478;51.844;6.582;2023-04-02T15:20:58;5.47;;;1.60;;
65737;SDS011;52478;51.844;6.582;2023-04-02T15:23:36;6.55;;;1.52;;
65737;SDS011;52478;51.844;6.582;2023-04-02T15:26:12;6.35;;;1.67;;
65737;SDS011;52478;51.844;6.582;2023-04-02T15:28:46;8.93;;;1.90;;
65737;SDS011;52478;51.844;6.582;2023-04-02T15:31:18;8.60;;;2.22;;
65737;SDS011;52478;51.844;6.582;2023-04-02T15:33:47;8.25;;;2.35;;
65737;SDS011;52478;51.844;6.582;2023-04-02T15:42:22;8.32;;;2.00;;
65737;SDS011;52478;51.844;6.582;2023-04-02T15:44:55;6.95;;;2.38;;
65737;SDS011;52478;51.844;6.582;2023-04-02T15:47:50;8.68;;;2.00;;
65737;SDS011;52478;51.844;6.582;2023-04-02T15:50:41;6.93;;;1.80;;
65737;SDS011;52478;51.844;6.582;2023-04-02T15:53:16;7.53;;;1.70;;
65737;SDS011;52478;51.844;6.582;2023-04-02T15:55:53;9.40;;;2.45;;
65737;SDS011;52478;51.844;6.582;2023-04-02T15:58:32;6.97;;;2.03;;
65737;SDS011;52478;51.844;6.582;2023-04-02T16:01:20;10.05;;;2.38;;
65737;SDS011;52478;51.844;6.582;2023-04-02T16:04:00;5.93;;;1.88;;
65737;SDS011;52478;51.844;6.582;2023-04-02T16:06:38;9.25;;;2.58;;